Sandia Park, NM (87047)

06:13 AM MDT del 01 Ottobre 2014 (GMT -0600)
Mike in Sandia Knolls | Change Station
CLOSE
Current Station
Stazione meteo personale
Location: Sandia Park, NM
Altitudine: 6693 ft
Stazioni meteo nelle vicinanze

Alt. 6693 ft 35.17 °N, 106.31 °W | Updated 14 minutes ago

Sereno
Sereno
37.3 °F
Sembra 37 °F
N
0.0
Vento Variabile Vento da SSO
Gusts 0.0 mph

Oggi
Massima -- | Minima -- °F
--% Possibilità di precip.
Ieri
Massima -- | Minima -- °F
Precip. -- in
7:00 AM 6:49 PM
Luna crescente, 47% visible
Pressione 29.78 in
Visibilità 10.0 miglia
Nuvole Sereno
Raffreddamento del vento 37 °F
Punto di rugiada 32 °F
Umidità 81%
Piovosità 0.00 in
Spessore del manto nevoso 20 in , 1 in , 1 in
Raggi UV 0 fuori da 12
Polline 5.90 fuori da 12
Qualità dell'aria Non disponibile.
Flu Activity Non disponibile.
METAR KABQ 011152Z 36004KT 10SM CLR 11/01 A2997 RMK AO2 SLP083 T01110011 10156 20106 55000

More Conditions Fewer Conditions

Pressione 29.78 in
Visibilità 10.0 miglia
Nuvole Sereno
Raffreddamento del vento 37 °F
Punto di rugiada 32 °F
Umidità 81%
Piovosità 0.00 in
Spessore del manto nevoso 20 in , 1 in , 1 in
Raggi UV 0 fuori da 12
Polline 5.90 fuori da 12
Qualità dell'aria Non disponibile.
Flu Activity Non disponibile.
METAR KABQ 011152Z 36004KT 10SM CLR 11/01 A2997 RMK AO2 SLP083 T01110011 10156 20106 55000

More Conditions Fewer Conditions

10-Day Weather Forecast

Almanac

Astronomia

Oct. 01, 2014 Alba Tramonto
Ora attuale 07:00 MDT 18:49 MDT
Crepuscolo civile 06:34 MDT 19:14 MDT
Crepuscolo nautico 06:05 MDT 19:43 MDT
Crepuscolo astronomico 05:35 MDT 20:13 MDT
Luna 13:54 MDT Nessun tramonto lunare
Estensione della luce visibile 12h 39m
Lunghezza del giorno
11h 48m
Tomorrow will be 2m 10s shorter.
Luna crescente, 47% of the Moon is Illuminated
Oggi
Luna crescente
Ott 1
Primo quarto
Ott 8
Luna piena
Ott 15
Ultimo quarto
Ott 23
Nuovo

Gli estremi di oggi

State Highs State Lows

Community

WunderPhotos

Upload Photos

1,757,914 foto caricate!

WunderBlogs® & News

Nearby

Profondità neve

Stazione Profondità Altitudine
Silver Creek Divide 20 in 9000 ft
Red River Pass #2 1 in 9850 ft
Chamita 1 in 8400 ft
Wesner Springs 3 in 11120 ft
Tolby 1 in 10180 ft

Attività sismica

Città  Distanza Mag. Data & Ora
Trinidad, Colorado 150 miglia 2.9 03:55 MDT
2014-09-30
Minimo Magnitudo Mostrato è 2.5.

Temperature delle acque costiere

Località Temperatura
Nessun dato dalle stazioni

Stazioni meteo nelle vicinanze